createdAt,value
2017-07-04T00:00:38.285Z,69.36
2017-07-04T00:01:38.281Z,69.46
2017-07-04T00:02:37.962Z,69.36
2017-07-04T00:03:37.965Z,69.36
2017-07-04T00:04:38.261Z,69.46
2017-07-04T00:05:38.273Z,69.46
2017-07-04T00:06:37.940Z,69.26
2017-07-04T00:07:37.952Z,69.17
2017-07-04T00:08:38.264Z,69.26
2017-07-04T00:09:38.260Z,69.74
2017-07-04T00:10:38.246Z,69.26
2017-07-04T00:11:38.253Z,69.65
2017-07-04T00:12:38.245Z,69.17
2017-07-04T00:13:37.922Z,69.74
2017-07-04T00:14:37.917Z,69.65
2017-07-04T00:15:38.237Z,69.84
2017-07-04T00:16:38.228Z,69.84
2017-07-04T00:17:37.915Z,69.93
2017-07-04T00:18:38.219Z,69.74
2017-07-04T00:19:38.233Z,70.13
2017-07-04T00:20:37.903Z,70.32
2017-07-04T00:21:38.216Z,70.9
2017-07-04T00:22:38.203Z,70.7
2017-07-04T00:23:38.220Z,70.8
2017-07-04T00:24:38.210Z,70.9
2017-07-04T00:25:38.211Z,70.51
2017-07-04T00:26:38.195Z,70.32
2017-07-04T00:27:38.189Z,69.74
2017-07-04T00:28:38.204Z,69.56
2017-07-04T00:29:37.882Z,68.69
2017-07-04T00:30:37.878Z,66.39
2017-07-04T00:31:38.178Z,65.52
2017-07-04T00:32:38.177Z,65.81
2017-07-04T00:33:37.854Z,64.76
2017-07-04T00:34:37.861Z,64.05
2017-07-04T00:35:38.166Z,64.53
2017-07-04T00:36:38.167Z,63.57
2017-07-04T00:37:38.165Z,63.48
2017-07-04T00:38:37.844Z,62.71
2017-07-04T00:39:38.163Z,63.38
2017-07-04T00:40:38.161Z,62.9
2017-07-04T00:41:38.153Z,62.52
2017-07-04T00:42:38.144Z,62.62
2017-07-04T00:43:38.143Z,62.52
2017-07-04T00:44:38.138Z,62.04
2017-07-04T00:45:37.824Z,61.94
2017-07-04T00:46:37.823Z,62.23
2017-07-04T00:47:38.122Z,61.85
2017-07-04T00:48:38.123Z,62.13
2017-07-04T00:49:38.120Z,62.13
2017-07-04T00:50:38.123Z,61.66
2017-07-04T00:51:38.108Z,61.94
2017-07-04T00:52:38.122Z,62.04
2017-07-04T00:53:37.786Z,61.85
2017-07-04T00:54:38.106Z,61.56
2017-07-04T00:55:38.103Z,61.94
2017-07-04T00:56:38.090Z,61.72
2017-07-04T00:57:37.771Z,62.04
2017-07-04T00:58:38.095Z,62.01
2017-07-04T00:59:38.094Z,61.91
2017-07-04T01:00:37.770Z,62.59
2017-07-04T01:01:37.760Z,62.2
2017-07-04T01:02:38.075Z,62.52
2017-07-04T01:03:38.063Z,62.2
2017-07-04T01:04:38.075Z,62.49
2017-07-04T01:05:37.751Z,62.49
2017-07-04T01:06:37.753Z,62.49
2017-07-04T01:07:37.734Z,62.81
2017-07-04T01:08:37.744Z,62.87
2017-07-04T01:09:37.738Z,62.71
2017-07-04T01:10:38.054Z,62.68
2017-07-04T01:11:37.728Z,62.52
2017-07-04T01:12:38.033Z,62.68
2017-07-04T01:13:38.025Z,62.04
2017-07-04T01:14:37.722Z,62.68
2017-07-04T01:15:38.021Z,62.52
2017-07-04T01:16:38.025Z,61.56
2017-07-04T01:17:38.021Z,61.91
2017-07-04T01:18:38.025Z,62.01
2017-07-04T01:19:37.691Z,62.01
2017-07-04T01:20:37.701Z,61.94
2017-07-04T01:21:38.005Z,62.1
2017-07-04T01:22:37.687Z,61.82
2017-07-04T01:23:37.997Z,61.72
2017-07-04T01:24:37.997Z,62.01
2017-07-04T01:25:37.670Z,62.01
2017-07-04T01:26:37.678Z,62.1
2017-07-04T01:27:37.984Z,61.72
2017-07-04T01:28:37.664Z,61.53
2017-07-04T01:29:37.660Z,61.91
2017-07-04T01:30:37.967Z,61.82
2017-07-04T01:31:37.958Z,61.82
2017-07-04T01:32:37.655Z,61.82
2017-07-04T01:33:37.966Z,61.82
2017-07-04T01:34:37.647Z,61.91
2017-07-04T01:35:37.943Z,61.82
2017-07-04T01:36:37.947Z,62.01
2017-07-04T01:37:37.626Z,62.01
2017-07-04T01:38:37.947Z,62.1
2017-07-04T01:39:37.939Z,61.91
2017-07-04T01:40:37.626Z,61.91
2017-07-04T01:41:37.616Z,61.91
2017-07-04T01:42:37.614Z,62.1
2017-07-04T01:43:37.926Z,61.53
2017-07-04T01:44:37.604Z,61.91
2017-07-04T01:45:37.916Z,61.88
2017-07-04T01:46:37.607Z,61.79
2017-07-04T01:47:37.907Z,61.88
2017-07-04T01:48:37.586Z,61.98
2017-07-04T01:49:37.899Z,62.07
2017-07-04T01:50:37.894Z,61.88
2017-07-04T01:51:37.582Z,62.26
2017-07-04T01:52:37.569Z,62.43
2017-07-04T01:53:37.567Z,62.33
2017-07-04T01:54:37.570Z,62.52
2017-07-04T01:55:37.869Z,62.52
2017-07-04T01:56:37.561Z,62.14
2017-07-04T01:57:37.859Z,61.94
2017-07-04T01:58:37.870Z,62.14
2017-07-04T01:59:37.849Z,61.85
2017-07-04T02:00:37.857Z,62.04
2017-07-04T02:01:37.529Z,62.2
2017-07-04T02:02:37.538Z,62.2
2017-07-04T02:03:37.850Z,62.4
2017-07-04T02:04:37.840Z,62.2
2017-07-04T02:05:37.825Z,62.4
2017-07-04T02:06:37.830Z,62.4
2017-07-04T02:07:37.515Z,62.4
2017-07-04T02:08:37.821Z,62.77
2017-07-04T02:09:37.827Z,62.49
2017-07-04T02:10:37.803Z,62.4
2017-07-04T02:11:37.816Z,62.4
2017-07-04T02:12:37.807Z,62.49
2017-07-04T02:13:37.491Z,63.32
2017-07-04T02:14:37.482Z,63.13
2017-07-04T02:15:37.476Z,63.13
2017-07-04T02:16:37.471Z,62.94
2017-07-04T02:17:37.783Z,62.84
2017-07-04T02:18:37.769Z,62.94
2017-07-04T02:19:37.461Z,63.7
2017-07-04T02:20:37.762Z,63.23
2017-07-04T02:21:37.439Z,63.03
2017-07-04T02:22:37.759Z,63.03
2017-07-04T02:23:37.755Z,62.74
2017-07-04T02:24:37.435Z,63.51
2017-07-04T02:25:37.432Z,63.48
2017-07-04T02:26:37.737Z,63.67
2017-07-04T02:27:37.427Z,63.39
2017-07-04T02:28:37.733Z,63
2017-07-04T02:29:37.732Z,63.48
2017-07-04T02:30:37.401Z,63.67
2017-07-04T02:31:37.404Z,63.86
2017-07-04T02:32:37.718Z,63.86
2017-07-04T02:33:37.398Z,64.15
2017-07-04T02:34:37.382Z,63.76
2017-07-04T02:35:37.692Z,64.72
2017-07-04T02:36:37.379Z,64.53
2017-07-04T02:37:37.373Z,64.05
2017-07-04T02:38:37.681Z,64.05
2017-07-04T02:39:37.354Z,63.96
2017-07-04T02:40:37.671Z,64.05
2017-07-04T02:41:37.347Z,63.96
2017-07-04T02:42:37.356Z,64.34
2017-07-04T02:43:37.645Z,64.53
2017-07-04T02:44:37.340Z,64.91
2017-07-04T02:45:37.649Z,64.53
2017-07-04T02:46:37.638Z,65.3
2017-07-04T02:47:37.322Z,65.39
2017-07-04T02:48:37.630Z,65.2
2017-07-04T02:49:37.314Z,65.11
2017-07-04T02:50:37.298Z,65.2
2017-07-04T02:51:37.296Z,65.3
2017-07-04T02:52:37.295Z,65.26
2017-07-04T02:53:37.292Z,65.2
2017-07-04T02:54:37.287Z,64.72
2017-07-04T02:55:37.275Z,64.59
2017-07-04T02:56:37.275Z,64.72
2017-07-04T02:57:37.575Z,65.58
2017-07-04T02:58:37.584Z,65.2
2017-07-04T02:59:37.569Z,65.3
2017-07-04T03:00:37.574Z,64.72
2017-07-04T03:01:37.551Z,65.01
2017-07-04T03:02:37.244Z,65.11
2017-07-04T03:03:37.551Z,65.48
2017-07-04T03:04:37.540Z,64.5
2017-07-04T03:05:37.538Z,65.17
2017-07-04T03:06:37.229Z,64.82
2017-07-04T03:07:37.531Z,65.11
2017-07-04T03:08:37.519Z,65.87
2017-07-04T03:09:37.508Z,65.39
2017-07-04T03:10:37.516Z,65.3
2017-07-04T03:11:37.193Z,65.48
2017-07-04T03:12:37.192Z,65.48
2017-07-04T03:13:37.492Z,65.58
2017-07-04T03:14:37.185Z,65.3
2017-07-04T03:15:37.170Z,65.48
2017-07-04T03:16:37.487Z,65.17
2017-07-04T03:17:37.479Z,65.48
2017-07-04T03:18:37.478Z,65.39
2017-07-04T03:19:37.470Z,65.3
2017-07-04T03:20:37.460Z,65.48
2017-07-04T03:21:37.138Z,65.39
2017-07-04T03:22:37.456Z,65.39
2017-07-04T03:23:37.451Z,65.39
2017-07-04T03:24:37.441Z,65.3
2017-07-04T03:25:37.121Z,65.48
2017-07-04T03:26:37.119Z,65.48
2017-07-04T03:27:37.467Z,65.39
2017-07-04T03:28:37.417Z,65.2
2017-07-04T03:29:37.418Z,65.97
2017-07-04T03:30:37.093Z,66.06
2017-07-04T03:31:37.418Z,65.68
2017-07-04T03:32:37.088Z,66
2017-07-04T03:33:37.408Z,65.9
2017-07-04T03:34:37.392Z,65.61
2017-07-04T03:35:37.074Z,65.33
2017-07-04T03:36:37.385Z,65.55
2017-07-04T03:37:37.057Z,65.55
2017-07-04T03:38:37.378Z,65.26
2017-07-04T03:39:37.383Z,64.59
2017-07-04T03:40:37.363Z,64.92
2017-07-04T03:41:37.359Z,64.43
2017-07-04T03:42:37.351Z,64.53
2017-07-04T03:43:37.360Z,63.99
2017-07-04T03:44:37.037Z,63.6
2017-07-04T03:45:37.038Z,63.6
2017-07-04T03:46:37.023Z,63.16
2017-07-04T03:47:37.345Z,63.06
2017-07-04T03:48:37.339Z,62.81
2017-07-04T03:49:37.337Z,63.19
2017-07-04T03:50:37.327Z,63.19
2017-07-04T03:51:37.014Z,62.62
2017-07-04T03:52:37.330Z,62.45
2017-07-04T03:53:37.333Z,62.65
2017-07-04T03:54:36.997Z,62.87
2017-07-04T03:55:37.301Z,63.16
2017-07-04T03:56:36.997Z,63.16
2017-07-04T03:57:37.310Z,64.72
2017-07-04T03:58:37.314Z,64.63
2017-07-04T03:59:37.296Z,64.28
2017-07-04T04:00:36.986Z,64.66
2017-07-04T04:01:36.996Z,65.27
2017-07-04T04:02:36.982Z,64.89
2017-07-04T04:03:36.988Z,65.59
2017-07-04T04:04:36.978Z,66.07
2017-07-04T04:05:36.983Z,66.46
2017-07-04T04:06:36.976Z,67.16
2017-07-04T04:07:36.978Z,66.88
2017-07-04T04:08:37.299Z,67.26
2017-07-04T04:09:37.307Z,67.19
2017-07-04T04:10:37.283Z,67.97
2017-07-04T04:11:36.967Z,68.19
2017-07-04T04:12:37.289Z,68.29
2017-07-04T04:13:36.978Z,68.42
2017-07-04T04:14:36.980Z,68.04
2017-07-04T04:15:37.287Z,67.88
2017-07-04T04:16:36.980Z,68.16
2017-07-04T04:17:36.972Z,67.91
2017-07-04T04:18:37.293Z,68.13
2017-07-04T04:19:36.972Z,67.85
2017-07-04T04:20:36.987Z,67.3
2017-07-04T04:21:37.297Z,66.82
2017-07-04T04:22:37.304Z,66.85
2017-07-04T04:23:37.293Z,66.69
2017-07-04T04:24:37.306Z,66.3
2017-07-04T04:25:37.298Z,65.17
2017-07-04T04:26:36.998Z,64.98
2017-07-04T04:27:36.989Z,63.85
2017-07-04T04:28:37.314Z,63.76
2017-07-04T04:29:37.008Z,63.4
2017-07-04T04:30:37.322Z,62.82
2017-07-04T04:31:37.250Z,62.82
2017-07-04T04:32:37.015Z,62.14
2017-07-04T04:33:37.015Z,61.88
2017-07-04T04:34:37.023Z,61.49
2017-07-04T04:35:37.336Z,61.79
2017-07-04T04:36:37.029Z,60.88
2017-07-04T04:37:37.036Z,60.88
2017-07-04T04:38:37.357Z,60.98
2017-07-04T04:39:37.026Z,61.18
2017-07-04T04:40:37.351Z,60.85
2017-07-04T04:41:37.363Z,61.63
2017-07-04T04:42:37.362Z,60.85
2017-07-04T04:43:37.360Z,61.82
2017-07-04T04:44:37.373Z,61.4
2017-07-04T04:45:37.370Z,61.79
2017-07-04T04:46:37.365Z,62.47
2017-07-04T04:47:37.368Z,62.18
2017-07-04T04:48:37.057Z,61.86
2017-07-04T04:49:37.375Z,62.34
2017-07-04T04:50:37.064Z,62.63
2017-07-04T04:51:37.368Z,63.18
2017-07-04T04:52:37.068Z,63.18
2017-07-04T04:53:37.391Z,63.47
2017-07-04T04:54:37.063Z,63.43
2017-07-04T04:55:37.074Z,64.11
2017-07-04T04:56:37.073Z,64.31
2017-07-04T04:57:37.386Z,63.79
2017-07-04T04:58:37.070Z,63.98
2017-07-04T04:59:37.070Z,64.56
2017-07-04T05:00:37.072Z,65.05
2017-07-04T05:01:37.390Z,64.63
2017-07-04T05:02:37.389Z,65.01
2017-07-04T05:03:37.389Z,65.5
2017-07-04T05:04:37.391Z,65.2
2017-07-04T05:05:37.075Z,65.98
2017-07-04T05:06:37.076Z,65.78
2017-07-04T05:07:37.391Z,66.08
2017-07-04T05:08:37.397Z,66.14
2017-07-04T05:09:37.391Z,66.04
2017-07-04T05:10:37.086Z,65.75
2017-07-04T05:11:37.078Z,66.24
2017-07-04T05:12:37.082Z,66.33
2017-07-04T05:13:37.393Z,66.24
2017-07-04T05:14:37.078Z,66.33
2017-07-04T05:15:37.077Z,66.3
2017-07-04T05:16:37.076Z,66.3
2017-07-04T05:17:37.071Z,66.88
2017-07-04T05:18:37.401Z,66.78
2017-07-04T05:19:37.390Z,66.39
2017-07-04T05:20:37.077Z,66.69
2017-07-04T05:21:37.381Z,66.55
2017-07-04T05:22:37.389Z,66.55
2017-07-04T05:23:37.391Z,66.85
2017-07-04T05:24:37.393Z,66.94
2017-07-04T05:25:37.379Z,66.85
2017-07-04T05:26:37.388Z,66.94
2017-07-04T05:27:37.375Z,67.03
2017-07-04T05:28:37.382Z,67.23
2017-07-04T05:29:37.066Z,67
2017-07-04T05:30:37.067Z,66.91
2017-07-04T05:31:37.386Z,66.81
2017-07-04T05:32:37.071Z,67.68
2017-07-04T05:33:37.380Z,67.68
2017-07-04T05:34:37.367Z,67.29
2017-07-04T05:35:37.067Z,67.55
2017-07-04T05:36:37.063Z,67.65
2017-07-04T05:37:37.374Z,67.74
2017-07-04T05:38:37.057Z,67.93
2017-07-04T05:39:37.377Z,67.26
2017-07-04T05:40:37.049Z,67.55
2017-07-04T05:41:37.368Z,67.16
2017-07-04T05:42:37.357Z,67.55
2017-07-04T05:43:37.370Z,67.74
2017-07-04T05:44:37.363Z,67.26
2017-07-04T05:45:37.043Z,67.83
2017-07-04T05:46:37.050Z,67.26
2017-07-04T05:47:37.361Z,67.93
2017-07-04T05:48:37.365Z,67.83
2017-07-04T05:49:37.036Z,68.03
2017-07-04T05:50:37.354Z,67.45
2017-07-04T05:51:37.040Z,67.26
2017-07-04T05:52:37.042Z,67.45
2017-07-04T05:53:37.359Z,67.45
2017-07-04T05:54:37.345Z,67.45
2017-07-04T05:55:37.036Z,67.16
2017-07-04T05:56:37.026Z,67.93
2017-07-04T05:57:37.348Z,67.39
2017-07-04T05:58:37.345Z,67.58
2017-07-04T05:59:37.353Z,67.58
2017-07-04T06:00:37.350Z,67
2017-07-04T06:01:37.029Z,67
2017-07-04T06:02:37.334Z,67.39
2017-07-04T06:03:37.022Z,67.1
2017-07-04T06:04:37.026Z,67.1
2017-07-04T06:05:37.031Z,67.13
2017-07-04T06:06:37.024Z,66.85
2017-07-04T06:07:37.334Z,66.75
2017-07-04T06:08:37.340Z,67.03
2017-07-04T06:09:37.333Z,66.91
2017-07-04T06:10:37.320Z,67.1
2017-07-04T06:11:37.337Z,66.91
2017-07-04T06:12:37.330Z,66.62
2017-07-04T06:13:37.337Z,66.91
2017-07-04T06:14:37.008Z,66.62
2017-07-04T06:15:37.336Z,66.71
2017-07-04T06:16:37.323Z,67
2017-07-04T06:17:37.013Z,66.91
2017-07-04T06:18:37.316Z,66.81
2017-07-04T06:19:37.001Z,66.52
2017-07-04T06:20:37.320Z,66.71
2017-07-04T06:21:37.326Z,66.71
2017-07-04T06:22:37.318Z,66.24
2017-07-04T06:23:37.318Z,66.24
2017-07-04T06:24:37.004Z,66.91
2017-07-04T06:25:37.327Z,66.71
2017-07-04T06:26:37.315Z,66.24
2017-07-04T06:27:37.321Z,66.04
2017-07-04T06:28:37.317Z,66.14
2017-07-04T06:29:36.999Z,66.14
2017-07-04T06:30:37.299Z,66.33
2017-07-04T06:31:36.996Z,66.07
2017-07-04T06:32:37.308Z,66.36
2017-07-04T06:33:37.001Z,65.81
2017-07-04T06:34:36.998Z,65.08
2017-07-04T06:35:37.319Z,63.85
2017-07-04T06:36:36.992Z,62.92
2017-07-04T06:37:37.311Z,61.96
2017-07-04T06:38:37.305Z,61.12
2017-07-04T06:39:37.007Z,59.67
2017-07-04T06:40:37.322Z,59.22
2017-07-04T06:41:37.325Z,59.22
2017-07-04T06:42:37.316Z,59.05
2017-07-04T06:43:37.344Z,58.57
2017-07-04T06:44:37.322Z,58.21
2017-07-04T06:45:37.344Z,57.34
2017-07-04T06:46:37.332Z,55.41
2017-07-04T06:47:37.029Z,55.99
2017-07-04T06:48:37.349Z,56.45
2017-07-04T06:49:37.036Z,56.9
2017-07-04T06:50:37.025Z,58.51
2017-07-04T06:51:37.349Z,59.48
2017-07-04T06:52:37.041Z,58.97
2017-07-04T06:53:37.041Z,59.83
2017-07-04T06:54:37.045Z,60.03
2017-07-04T06:55:37.353Z,60.89
2017-07-04T06:56:37.042Z,61.09
2017-07-04T06:57:37.353Z,60.86
2017-07-04T06:58:37.371Z,60.68
2017-07-04T06:59:37.357Z,60.68
2017-07-04T07:00:37.055Z,60.86
2017-07-04T07:01:37.374Z,61.32
2017-07-04T07:02:37.364Z,61.51
2017-07-04T07:03:37.378Z,61.9
2017-07-04T07:04:37.366Z,61.51
2017-07-04T07:05:37.372Z,61.71
2017-07-04T07:06:37.360Z,61.64
2017-07-04T07:07:37.052Z,61.44
2017-07-04T07:08:37.378Z,61.25
2017-07-04T07:09:37.066Z,60.96
2017-07-04T07:10:37.383Z,60.03
2017-07-04T07:11:37.061Z,59.9
2017-07-04T07:12:37.061Z,60.41
2017-07-04T07:13:37.371Z,59.06
2017-07-04T07:14:37.068Z,58.87
2017-07-04T07:15:37.380Z,58.29
2017-07-04T07:16:37.387Z,57.64
2017-07-04T07:17:37.073Z,57.32
2017-07-04T07:18:37.394Z,57.42
2017-07-04T07:19:37.380Z,57.32
2017-07-04T07:20:37.391Z,57.9
2017-07-04T07:21:37.391Z,57.74
2017-07-04T07:22:37.085Z,57.06
2017-07-04T07:23:37.398Z,56.68
2017-07-04T07:24:37.401Z,56.48
2017-07-04T07:25:37.085Z,56.87
2017-07-04T07:26:37.409Z,56.87
2017-07-04T07:27:37.084Z,56.41
2017-07-04T07:28:37.422Z,55.35
2017-07-04T07:29:37.403Z,53.91
2017-07-04T07:30:37.418Z,54.8
2017-07-04T07:31:37.419Z,54.77
2017-07-04T07:32:37.429Z,55.45
2017-07-04T07:33:37.426Z,54
2017-07-04T07:34:37.432Z,54.1
2017-07-04T07:35:37.423Z,53.33
2017-07-04T07:36:37.122Z,53.03
2017-07-04T07:37:37.120Z,53.61
2017-07-04T07:38:37.444Z,53.03
2017-07-04T07:39:37.133Z,53.13
2017-07-04T07:40:37.451Z,53.3
2017-07-04T07:41:37.132Z,53.69
2017-07-04T07:42:37.133Z,53.97
2017-07-04T07:43:37.462Z,53.97
2017-07-04T07:44:37.448Z,55.23
2017-07-04T07:45:37.466Z,55.1
2017-07-04T07:46:37.145Z,53.97
2017-07-04T07:47:37.475Z,53.88
2017-07-04T07:48:37.462Z,53.97
2017-07-04T07:49:37.480Z,52.94
2017-07-04T07:50:37.162Z,53.06
2017-07-04T07:51:37.489Z,52.31
2017-07-04T07:52:37.171Z,50.02
2017-07-04T07:53:37.502Z,48.3
2017-07-04T07:54:37.190Z,47.72
2017-07-04T07:55:37.524Z,47.55
2017-07-04T07:56:37.199Z,44.76
2017-07-04T07:57:37.518Z,44.18
2017-07-04T07:58:37.530Z,43.43
2017-07-04T07:59:37.542Z,43.04
2017-07-04T08:00:37.542Z,43.7
2017-07-04T08:01:37.550Z,44.27
2017-07-04T08:02:37.549Z,44.1
2017-07-04T08:03:37.252Z,42.17
2017-07-04T08:04:37.569Z,41.78
2017-07-04T08:05:37.259Z,41.39
2017-07-04T08:06:37.269Z,41.3
2017-07-04T08:07:37.277Z,40.33
2017-07-04T08:08:37.600Z,41.2
2017-07-04T08:09:37.607Z,42.54
2017-07-04T08:10:37.619Z,42.24
2017-07-04T08:11:37.620Z,41.27
2017-07-04T08:12:37.307Z,41.37
2017-07-04T08:13:37.321Z,42.24
2017-07-04T08:14:37.319Z,43.41
2017-07-04T08:15:37.335Z,42.85
2017-07-04T08:16:37.645Z,41.39
2017-07-04T08:17:37.669Z,40.52
2017-07-04T08:18:37.675Z,41.02
2017-07-04T08:19:37.678Z,40.64
2017-07-04T08:20:37.688Z,40.17
2017-07-04T08:21:37.380Z,40.26
2017-07-04T08:22:37.708Z,38.83
2017-07-04T08:23:37.706Z,37.57
2017-07-04T08:24:37.411Z,37.37
2017-07-04T08:25:37.745Z,37.47
2017-07-04T08:26:37.749Z,37.37
2017-07-04T08:27:37.438Z,37.37
2017-07-04T08:28:37.755Z,37.35
2017-07-04T08:31:37.787Z,38.89
2017-07-04T08:32:37.472Z,39.08
2017-07-04T08:33:37.801Z,38.31
2017-07-04T08:34:37.800Z,37.94
2017-07-04T08:35:37.825Z,37.84
2017-07-04T08:36:37.813Z,37.76
2017-07-04T08:37:37.522Z,36.21
2017-07-04T08:38:37.527Z,34.75
2017-07-04T08:39:37.536Z,34.67
2017-07-04T08:40:37.855Z,35.72
2017-07-04T08:41:37.872Z,35.45
2017-07-04T08:42:37.888Z,35.92
2017-07-04T08:43:37.889Z,35.92
2017-07-04T08:44:37.899Z,36.4
2017-07-04T08:45:37.909Z,36.89
2017-07-04T08:46:37.909Z,37.07
2017-07-04T08:47:37.925Z,37.26
2017-07-04T08:48:37.617Z,37.35
2017-07-04T08:49:37.627Z,37.05
2017-07-04T08:50:37.628Z,37.43
2017-07-04T08:51:37.966Z,37.43
2017-07-04T08:52:37.651Z,35.49
2017-07-04T08:53:37.986Z,35.69
2017-07-04T08:54:37.983Z,35.01
2017-07-04T08:55:37.679Z,34.53
2017-07-04T08:56:37.687Z,34.43
2017-07-04T08:57:37.699Z,34.43
2017-07-04T08:58:38.031Z,34.72
2017-07-04T08:59:37.713Z,35.67
2017-07-04T09:00:38.035Z,36.35
2017-07-04T09:01:37.733Z,36.35
2017-07-04T09:02:38.071Z,35.96
2017-07-04T09:03:38.067Z,35.86
2017-07-04T09:04:38.090Z,36.64
2017-07-04T09:05:37.770Z,37.13
2017-07-04T09:06:38.100Z,37.01
2017-07-04T09:07:38.106Z,37.11
2017-07-04T09:08:38.127Z,38.25
2017-07-04T09:09:38.124Z,38.04
2017-07-04T09:10:38.137Z,38.62
2017-07-04T09:11:37.827Z,38.89
2017-07-04T09:12:38.145Z,38.87
2017-07-04T09:13:38.163Z,39.45
2017-07-04T09:14:38.159Z,40.3
2017-07-04T09:15:38.156Z,40.11
2017-07-04T09:16:37.857Z,40.88
2017-07-04T09:17:38.215Z,40.59
2017-07-04T09:18:38.184Z,40.67
2017-07-04T09:19:38.190Z,40.28
2017-07-04T09:20:38.198Z,40.19
2017-07-04T09:21:38.192Z,40.28
2017-07-04T09:22:38.204Z,39.7
2017-07-04T09:23:38.191Z,40.67
2017-07-04T09:24:38.212Z,39.9
2017-07-04T09:25:37.893Z,39.87
2017-07-04T09:26:37.898Z,39.2
2017-07-04T09:27:38.200Z,39.97
2017-07-04T09:28:38.221Z,40.45
2017-07-04T09:29:38.208Z,40.38
2017-07-04T09:30:38.215Z,40.38
2017-07-04T09:31:38.225Z,40.09
2017-07-04T09:32:37.913Z,40.28
2017-07-04T09:33:38.233Z,40.86
2017-07-04T09:34:37.918Z,39.99
2017-07-04T09:35:38.243Z,40.09
2017-07-04T09:36:37.926Z,39.82
2017-07-04T09:37:38.239Z,39.92
2017-07-04T09:38:38.250Z,39.43
2017-07-04T09:39:38.242Z,38.95
2017-07-04T09:40:38.257Z,39.51
2017-07-04T09:41:38.243Z,40.38
2017-07-04T09:42:37.936Z,40.77
2017-07-04T09:43:38.256Z,41.08
2017-07-04T09:44:38.264Z,40.5
2017-07-04T09:45:37.933Z,38.18
2017-07-04T09:46:37.937Z,37.88
2017-07-04T09:47:38.261Z,37.7
2017-07-04T09:48:38.268Z,35.86
2017-07-04T09:49:37.951Z,36.61
2017-07-04T09:50:37.949Z,37.1
2017-07-04T09:51:38.272Z,37.65
2017-07-04T09:52:37.948Z,38.23
2017-07-04T09:53:38.292Z,38.43
2017-07-04T09:54:37.957Z,38.71
2017-07-04T09:55:37.966Z,39.47
2017-07-04T09:56:37.963Z,39.47
2017-07-04T09:57:38.288Z,39.86
2017-07-04T09:58:38.274Z,39.47
2017-07-04T09:59:38.288Z,39.39
2017-07-04T10:00:38.283Z,38.71
2017-07-04T10:01:38.295Z,38.71
2017-07-04T10:02:37.970Z,39.01
2017-07-04T10:03:38.347Z,39.39
2017-07-04T10:04:37.979Z,39.39
2017-07-04T10:05:37.985Z,39.49
2017-07-04T10:06:37.976Z,39.29
2017-07-04T10:07:37.986Z,39.37
2017-07-04T10:08:37.973Z,38.7
2017-07-04T10:09:37.984Z,39.11
2017-07-04T10:10:37.976Z,39.76
2017-07-04T10:11:38.311Z,39.86
2017-07-04T10:12:38.553Z,39.95
2017-07-04T10:13:38.307Z,38.89
2017-07-04T10:14:38.308Z,39.37
2017-07-04T10:15:37.997Z,38.6
2017-07-04T10:16:38.306Z,38.7
2017-07-04T10:17:37.994Z,38.79
2017-07-04T10:18:38.311Z,38.6
2017-07-04T10:19:37.995Z,39.18
2017-07-04T10:20:38.311Z,39.95
2017-07-04T10:21:37.991Z,38.6
2017-07-04T10:22:38.313Z,38.31
2017-07-04T10:23:38.309Z,38.02
2017-07-04T10:24:38.000Z,38.7
2017-07-04T10:25:38.307Z,38.99
2017-07-04T10:26:38.007Z,39.37
2017-07-04T10:27:38.309Z,38.31
2017-07-04T10:28:38.320Z,38.51
2017-07-04T10:29:38.323Z,38.51
2017-07-04T10:30:38.320Z,39.54
2017-07-04T10:31:38.313Z,39.06
2017-07-04T10:32:38.324Z,39.26
2017-07-04T10:33:38.325Z,38.68
2017-07-04T10:34:38.323Z,38.99
2017-07-04T10:35:38.319Z,39.95
2017-07-04T10:36:38.326Z,39.86
2017-07-04T10:37:38.320Z,39.76
2017-07-04T10:38:38.012Z,38.6
2017-07-04T10:39:38.014Z,38.53
2017-07-04T10:40:38.013Z,38.51
2017-07-04T10:41:38.005Z,37.65
2017-07-04T10:42:38.344Z,36.88
2017-07-04T10:43:38.012Z,37.17
2017-07-04T10:44:38.341Z,37.08
2017-07-04T10:45:38.017Z,36.69
2017-07-04T10:46:38.336Z,35.92
2017-07-04T10:47:38.339Z,36.79
2017-07-04T10:48:38.346Z,36.88
2017-07-04T10:49:38.331Z,36.79
2017-07-04T10:50:38.018Z,37.1
2017-07-04T10:51:38.026Z,36.22
2017-07-04T10:52:38.344Z,36.03
2017-07-04T10:53:38.333Z,36.03
2017-07-04T10:54:38.351Z,36.9
2017-07-04T10:55:38.340Z,36.32
2017-07-04T10:56:38.035Z,35.45
2017-07-04T10:57:38.028Z,36.03
2017-07-04T10:58:38.351Z,35.84
2017-07-04T10:59:38.028Z,35.94
2017-07-04T11:00:38.041Z,36.32
2017-07-04T11:01:38.039Z,36.22
2017-07-04T11:02:38.364Z,35.45
2017-07-04T11:03:38.038Z,36.13
2017-07-04T11:04:38.364Z,36.52
2017-07-04T11:05:38.041Z,36.79
2017-07-04T11:06:38.354Z,36.01
2017-07-04T11:07:38.366Z,35.44
2017-07-04T11:08:38.371Z,35.82
2017-07-04T11:09:38.367Z,35.92
2017-07-04T11:10:38.042Z,35.92
2017-07-04T11:11:38.374Z,36.88
2017-07-04T11:12:38.370Z,36.98
2017-07-04T11:13:38.372Z,36.69
2017-07-04T11:14:38.048Z,36.77
2017-07-04T11:15:38.375Z,37.08
2017-07-04T11:16:38.369Z,37.27
2017-07-04T11:17:38.375Z,36.79
2017-07-04T11:18:38.048Z,37.17
2017-07-04T11:19:38.380Z,36.69
2017-07-04T11:20:38.381Z,35.72
2017-07-04T11:21:38.369Z,35.82
2017-07-04T11:22:38.055Z,35.24
2017-07-04T11:23:38.377Z,35.72
2017-07-04T11:24:38.383Z,35.14
2017-07-04T11:25:38.389Z,34.78
2017-07-04T11:26:38.381Z,35.74
2017-07-04T11:27:38.383Z,35.45
2017-07-04T11:28:38.377Z,35.16
2017-07-04T11:29:38.391Z,35.45
2017-07-04T11:30:38.376Z,35.55
2017-07-04T11:31:38.388Z,36.22
2017-07-04T11:32:38.395Z,35.26
2017-07-04T11:33:38.071Z,35.36
2017-07-04T11:34:38.075Z,35.84
2017-07-04T11:35:38.080Z,37
2017-07-04T11:36:38.400Z,36.42
2017-07-04T11:37:38.075Z,35.47
2017-07-04T11:38:38.078Z,35.66
2017-07-04T11:39:38.083Z,35.86
2017-07-04T11:40:38.406Z,36.05
2017-07-04T11:41:38.091Z,34.39
2017-07-04T11:42:38.397Z,34.48
2017-07-04T11:43:38.404Z,34.87
2017-07-04T11:44:38.087Z,34.87
2017-07-04T11:45:38.402Z,34.78
2017-07-04T11:46:38.088Z,34.87
2017-07-04T11:47:38.403Z,34.68
2017-07-04T11:48:38.411Z,35.36
2017-07-04T11:49:38.084Z,35.92
2017-07-04T11:50:38.413Z,37.08
2017-07-04T11:51:38.409Z,37.19
2017-07-04T11:52:38.416Z,36.4
2017-07-04T11:53:38.413Z,35.74
2017-07-04T11:54:38.403Z,35.72
2017-07-04T11:55:38.412Z,35.36
2017-07-04T11:56:38.425Z,35.53
2017-07-04T11:57:38.100Z,35.34
2017-07-04T11:58:38.413Z,35.24
2017-07-04T11:59:38.423Z,35.53
2017-07-04T12:00:38.096Z,36.5
2017-07-04T12:01:38.431Z,35.72
2017-07-04T12:02:38.424Z,36.3
2017-07-04T12:03:38.431Z,36.98
2017-07-04T12:04:38.423Z,37.17
2017-07-04T12:05:38.426Z,37.1
2017-07-04T12:06:38.424Z,37
2017-07-04T12:07:38.426Z,36.8
2017-07-04T12:08:38.418Z,35.45
2017-07-04T12:09:38.435Z,35.26
2017-07-04T12:10:38.109Z,35.36
2017-07-04T12:11:38.434Z,36.13
2017-07-04T12:12:38.436Z,36.32
2017-07-04T12:13:38.431Z,36.32
2017-07-04T12:14:38.431Z,35.94
2017-07-04T12:15:38.430Z,36.61
2017-07-04T12:16:38.435Z,36.9
2017-07-04T12:17:38.435Z,36.52
2017-07-04T12:18:38.435Z,36.71
2017-07-04T12:19:38.438Z,36.9
2017-07-04T12:20:38.118Z,37.1
2017-07-04T12:21:38.435Z,35.94
2017-07-04T12:22:38.426Z,36.42
2017-07-04T12:23:38.441Z,35.94
2017-07-04T12:24:38.476Z,36.03
2017-07-04T12:25:38.439Z,35.74
2017-07-04T12:26:38.448Z,35.74
2017-07-04T12:27:38.439Z,34.87
2017-07-04T12:28:38.435Z,35.06
2017-07-04T12:29:38.128Z,35.64
2017-07-04T12:30:38.135Z,36.32
2017-07-04T12:31:38.129Z,35.74
2017-07-04T12:32:38.457Z,35.72
2017-07-04T12:33:38.439Z,35.92
2017-07-04T12:34:38.454Z,35.92
2017-07-04T12:35:38.453Z,36.5
2017-07-04T12:36:38.454Z,35.82
2017-07-04T12:37:38.143Z,36.21
2017-07-04T12:38:38.457Z,36.59
2017-07-04T12:39:38.457Z,36.79
2017-07-04T12:40:38.138Z,37.29
2017-07-04T12:41:38.462Z,37.1
2017-07-04T12:42:38.145Z,37.1
2017-07-04T12:43:38.141Z,37.1
2017-07-04T12:44:38.489Z,37.1
2017-07-04T12:45:38.453Z,35.74
2017-07-04T12:46:38.480Z,35.37
2017-07-04T12:47:38.456Z,35.28
2017-07-04T12:48:38.465Z,34.41
2017-07-04T12:49:38.469Z,34.41
2017-07-04T12:50:38.152Z,34.7
2017-07-04T12:51:38.153Z,35.37
2017-07-04T12:52:38.473Z,34.79
2017-07-04T12:53:38.463Z,34.6
2017-07-04T12:54:38.163Z,34.12
2017-07-04T12:55:38.161Z,34.31
2017-07-04T12:56:38.165Z,32.94
2017-07-04T12:57:38.159Z,34
2017-07-04T12:58:38.162Z,33.33